createdAt,value
2019-02-15T00:00:53.135Z,6.43
2019-02-15T00:05:59.284Z,6.00
2019-02-15T00:11:06.597Z,5.87
2019-02-15T00:16:12.779Z,5.50
2019-02-15T00:21:21.017Z,5.43
2019-02-15T00:26:27.084Z,5.53
2019-02-15T00:31:33.145Z,5.53
2019-02-15T00:36:39.253Z,5.60
2019-02-15T00:41:46.539Z,5.77
2019-02-15T00:47:19.365Z,5.40
2019-02-15T00:52:39.131Z,5.10
2019-02-15T00:58:03.965Z,5.00
2019-02-15T01:03:27.664Z,5.80
2019-02-15T01:08:55.780Z,5.47
2019-02-15T01:14:01.998Z,4.60
2019-02-15T01:19:07.969Z,5.20
2019-02-15T01:24:13.934Z,4.90
2019-02-15T01:29:41.557Z,4.80
2019-02-15T01:35:05.168Z,5.10
2019-02-15T01:40:26.703Z,4.60
2019-02-15T01:45:43.938Z,4.73
2019-02-15T01:50:49.959Z,4.30
2019-02-15T01:55:55.837Z,4.27
2019-02-15T02:01:01.999Z,4.03
2019-02-15T02:06:08.187Z,4.40
2019-02-15T02:11:14.353Z,3.70
2019-02-15T02:16:20.287Z,3.83
2019-02-15T02:21:26.248Z,3.70
2019-02-15T02:26:32.208Z,4.10
2019-02-15T02:31:38.274Z,4.10
2019-02-15T02:36:51.227Z,3.73
2019-02-15T02:41:57.181Z,3.83
2019-02-15T02:47:03.062Z,3.43
2019-02-15T02:52:09.345Z,3.70
2019-02-15T02:57:15.359Z,3.80
2019-02-15T03:02:21.352Z,3.70
2019-02-15T03:07:27.259Z,3.70
2019-02-15T03:12:33.207Z,3.70
2019-02-15T03:17:39.230Z,3.63
2019-02-15T03:22:45.358Z,3.70
2019-02-15T03:27:51.306Z,3.90
2019-02-15T03:32:57.345Z,3.30
2019-02-15T03:38:11.132Z,3.77
2019-02-15T03:43:17.310Z,3.47
2019-02-15T03:48:23.488Z,3.30
2019-02-15T03:53:29.528Z,3.47
2019-02-15T03:58:35.474Z,3.20
2019-02-15T04:03:41.432Z,3.20
2019-02-15T04:08:47.416Z,3.60
2019-02-15T04:13:53.592Z,3.43
2019-02-15T04:18:59.568Z,3.13
2019-02-15T04:24:05.514Z,4.20
2019-02-15T04:29:11.577Z,3.40
2019-02-15T04:34:17.557Z,3.00
2019-02-15T04:39:23.744Z,3.00
2019-02-15T04:44:29.821Z,3.03
2019-02-15T04:49:35.940Z,2.67
2019-02-15T04:54:41.949Z,3.13
2019-02-15T04:59:47.929Z,2.47
2019-02-15T05:04:54.008Z,2.57
2019-02-15T05:09:59.992Z,2.53
2019-02-15T05:15:05.957Z,2.97
2019-02-15T05:20:12.218Z,2.30
2019-02-15T05:25:18.206Z,2.77
2019-02-15T05:30:24.226Z,2.60
2019-02-15T05:35:30.244Z,3.57
2019-02-15T05:40:36.317Z,3.03
2019-02-15T05:45:42.508Z,4.80
2019-02-15T05:50:48.587Z,3.90
2019-02-15T05:55:54.477Z,3.23
2019-02-15T06:01:01.734Z,3.10
2019-02-15T06:06:07.753Z,3.20
2019-02-15T06:11:13.680Z,3.00
2019-02-15T06:16:19.669Z,3.10
2019-02-15T06:21:25.849Z,3.10
2019-02-15T06:26:31.924Z,3.20
2019-02-15T06:31:37.886Z,3.40
2019-02-15T06:36:43.889Z,3.37
2019-02-15T06:41:49.993Z,3.47
2019-02-15T06:46:55.910Z,3.17
2019-02-15T06:52:02.097Z,3.13
2019-02-15T06:57:08.204Z,3.30
2019-02-15T07:02:36.107Z,3.60
2019-02-15T07:07:42.096Z,3.07
2019-02-15T07:12:48.190Z,3.70
2019-02-15T07:17:54.169Z,3.97
2019-02-15T07:23:00.080Z,3.10
2019-02-15T07:28:06.093Z,3.53
2019-02-15T07:33:12.090Z,4.03
2019-02-15T07:38:18.155Z,3.90
2019-02-15T07:43:24.180Z,3.80
2019-02-15T07:48:30.120Z,3.87
2019-02-15T07:53:36.109Z,5.50
2019-02-15T07:58:41.946Z,5.77
2019-02-15T08:03:48.122Z,6.90
2019-02-15T08:08:54.176Z,6.97
2019-02-15T08:14:00.192Z,14.83
2019-02-15T08:19:06.247Z,21.93
2019-02-15T08:24:12.247Z,17.00
2019-02-15T08:29:18.412Z,14.63
2019-02-15T08:34:24.463Z,11.13
2019-02-15T08:39:30.440Z,9.20
2019-02-15T08:44:36.477Z,8.77
2019-02-15T08:49:42.508Z,5.00
2019-02-15T08:54:49.496Z,5.00
2019-02-15T08:59:55.549Z,3.33
2019-02-15T09:05:02.141Z,3.53
2019-02-15T09:10:09.868Z,3.53
2019-02-15T09:15:18.428Z,9.03
2019-02-15T09:20:24.468Z,5.53
2019-02-15T09:25:30.334Z,2.20
2019-02-15T09:30:36.366Z,1.60
2019-02-15T09:35:42.280Z,3.10
2019-02-15T09:40:48.468Z,2.00
2019-02-15T09:45:54.524Z,1.47
2019-02-15T09:51:00.555Z,1.50
2019-02-15T09:56:06.517Z,1.60
2019-02-15T10:01:12.733Z,0.90
2019-02-15T10:06:18.838Z,0.80
2019-02-15T10:11:24.919Z,0.80
2019-02-15T10:16:31.516Z,0.90
2019-02-15T10:21:37.811Z,0.80
2019-02-15T10:26:43.860Z,1.37
2019-02-15T10:31:49.930Z,0.93
2019-02-15T10:36:56.087Z,0.93
2019-02-15T10:42:02.248Z,1.23
2019-02-15T10:47:13.980Z,0.80
2019-02-15T10:52:15.762Z,0.70
2019-02-15T10:57:21.873Z,0.80
2019-02-15T11:02:27.917Z,0.67
2019-02-15T11:07:33.895Z,1.30
2019-02-15T11:12:39.843Z,1.63
2019-02-15T11:17:45.974Z,1.10
2019-02-15T11:22:51.997Z,0.90
2019-02-15T11:27:57.983Z,0.80
2019-02-15T11:33:04.037Z,1.00
2019-02-15T11:38:10.032Z,0.80
2019-02-15T11:43:16.087Z,0.80
2019-02-15T11:48:22.188Z,0.83
2019-02-15T11:53:28.253Z,1.10
2019-02-15T11:58:34.455Z,0.93
2019-02-15T12:03:40.424Z,1.00
2019-02-15T12:08:46.579Z,0.80
2019-02-15T12:13:52.668Z,0.93
2019-02-15T12:18:58.630Z,1.30
2019-02-15T12:24:04.684Z,1.73
2019-02-15T12:29:10.854Z,1.10
2019-02-15T12:34:16.956Z,0.50
2019-02-15T12:39:23.027Z,0.80
2019-02-15T12:44:29.019Z,0.70
2019-02-15T12:49:34.957Z,0.63
2019-02-15T12:54:40.993Z,1.10
2019-02-15T12:59:47.089Z,0.67
2019-02-15T13:04:53.199Z,0.80
2019-02-15T13:09:59.164Z,0.80
2019-02-15T13:15:05.321Z,0.53
2019-02-15T13:20:11.608Z,0.60
2019-02-15T13:25:18.670Z,6.80
2019-02-15T13:30:24.734Z,4.50
2019-02-15T13:35:30.663Z,3.67
2019-02-15T13:40:36.843Z,2.00
2019-02-15T13:45:42.833Z,1.10
2019-02-15T13:50:48.700Z,1.70
2019-02-15T13:55:54.688Z,4.40
2019-02-15T14:01:00.730Z,1.30
2019-02-15T14:06:06.893Z,3.10
2019-02-15T14:11:13.079Z,1.20
2019-02-15T14:16:19.041Z,1.03
2019-02-15T14:21:26.052Z,1.33
2019-02-15T14:26:32.018Z,1.10
2019-02-15T14:31:38.153Z,1.30
2019-02-15T14:36:44.311Z,2.23
2019-02-15T14:41:50.359Z,1.30
2019-02-15T14:46:56.266Z,1.60
2019-02-15T14:52:02.145Z,1.90
2019-02-15T14:57:08.179Z,2.63
2019-02-15T15:02:14.162Z,3.53
2019-02-15T15:07:20.109Z,2.30
2019-02-15T15:12:26.079Z,2.00
2019-02-15T15:17:32.187Z,2.10
2019-02-15T15:22:38.226Z,1.57
2019-02-15T15:27:44.444Z,1.70
2019-02-15T15:32:50.481Z,1.70
2019-02-15T15:37:56.660Z,1.47
2019-02-15T15:43:02.670Z,1.67
2019-02-15T15:48:08.621Z,1.97
2019-02-15T15:53:14.766Z,2.23
2019-02-15T15:58:20.838Z,1.90
2019-02-15T16:03:26.825Z,3.20
2019-02-15T16:08:32.812Z,2.73
2019-02-15T16:13:38.942Z,3.17
2019-02-15T16:18:45.249Z,2.20
2019-02-15T16:23:51.324Z,3.03
2019-02-15T16:28:57.422Z,2.90
2019-02-15T16:34:03.335Z,2.60
2019-02-15T16:39:09.279Z,3.97
2019-02-15T16:44:15.686Z,6.57
2019-02-15T16:49:21.909Z,9.20
2019-02-15T16:54:27.945Z,8.20
2019-02-15T16:59:34.089Z,8.83
2019-02-15T17:04:40.161Z,15.10
2019-02-15T17:09:46.164Z,13.50
2019-02-15T17:14:52.291Z,12.03
2019-02-15T17:19:58.459Z,9.27
2019-02-15T17:25:04.578Z,6.60
2019-02-15T17:30:10.852Z,5.70
2019-02-15T17:35:16.992Z,8.20
2019-02-15T17:40:23.176Z,9.40
2019-02-15T17:45:29.256Z,7.13
2019-02-15T17:50:35.236Z,7.27
2019-02-15T17:55:41.342Z,7.40
2019-02-15T18:00:47.469Z,14.67
2019-02-15T18:05:53.539Z,10.97
2019-02-15T18:10:59.639Z,8.10
2019-02-15T18:16:05.602Z,6.90
2019-02-15T18:21:11.560Z,10.33
2019-02-15T18:26:17.628Z,7.70
2019-02-15T18:31:23.707Z,9.00
2019-02-15T18:36:29.760Z,7.53
2019-02-15T18:41:35.760Z,5.50
2019-02-15T18:46:41.651Z,4.70
2019-02-15T18:51:47.499Z,4.47
2019-02-15T18:56:53.512Z,5.03
2019-02-15T19:01:59.487Z,4.10
2019-02-15T19:07:05.719Z,5.17
2019-02-15T19:12:11.918Z,4.80
2019-02-15T19:17:18.082Z,7.90
2019-02-15T19:22:24.137Z,15.13
2019-02-15T19:27:30.269Z,5.53
2019-02-15T19:32:36.236Z,8.13
2019-02-15T19:37:43.208Z,5.40
2019-02-15T19:42:50.489Z,5.00
2019-02-15T19:47:58.331Z,6.70
2019-02-15T19:53:04.182Z,4.73
2019-02-15T19:58:10.461Z,4.90
2019-02-15T20:03:16.656Z,6.73
2019-02-15T20:08:22.634Z,4.47
2019-02-15T20:13:28.949Z,4.50
2019-02-15T20:18:35.180Z,4.77
2019-02-15T20:23:41.292Z,4.70
2019-02-15T20:28:47.221Z,5.20
2019-02-15T20:33:53.312Z,5.60
2019-02-15T20:38:59.387Z,4.63
2019-02-15T20:44:05.441Z,4.67
2019-02-15T20:49:11.563Z,4.87
2019-02-15T20:54:17.700Z,4.90
2019-02-15T20:59:23.972Z,4.73
2019-02-15T21:04:30.046Z,3.90
2019-02-15T21:09:36.009Z,4.10
2019-02-15T21:14:42.217Z,4.80
2019-02-15T21:19:48.269Z,4.63
2019-02-15T21:24:54.390Z,4.60
2019-02-15T21:30:00.520Z,5.40
2019-02-15T21:35:06.597Z,5.07
2019-02-15T21:40:13.807Z,4.50
2019-02-15T21:45:19.654Z,5.10
2019-02-15T21:50:25.617Z,4.67
2019-02-15T21:55:31.517Z,4.83
2019-02-15T22:00:37.629Z,4.67
2019-02-15T22:05:43.631Z,4.70
2019-02-15T22:10:49.836Z,4.43
2019-02-15T22:15:55.780Z,4.20
2019-02-15T22:21:01.927Z,4.80
2019-02-15T22:26:08.045Z,4.67
2019-02-15T22:31:14.232Z,4.93
2019-02-15T22:36:20.210Z,4.30
2019-02-15T22:41:26.202Z,4.23
2019-02-15T22:46:32.196Z,4.60
2019-02-15T22:51:38.236Z,4.50
2019-02-15T22:56:44.392Z,4.83
2019-02-15T23:01:50.490Z,4.90
2019-02-15T23:06:56.471Z,5.50
2019-02-15T23:12:03.349Z,4.50
2019-02-15T23:17:09.444Z,4.40
2019-02-15T23:22:15.510Z,4.60
2019-02-15T23:27:21.507Z,4.83
2019-02-15T23:32:27.663Z,5.53
2019-02-15T23:37:33.816Z,5.43
2019-02-15T23:42:39.908Z,5.27
2019-02-15T23:47:45.952Z,6.13
2019-02-15T23:52:52.117Z,5.40
2019-02-15T23:57:58.219Z,5.60
